Time;durP1;ratioP1;P1;durP2;ratioP2;P2;SDS_P1;SDS_P2;PMS_P1;PMS_P2;Temp;Humidity;BMP_temperature;BMP_pressure;BME280_temperature;BME280_humidity;BME280_pressure;Samples;Min_cycle;Max_cycle;Signal;HPM_P1;HPM_P2
2022/03/26 00:00:19;;;;;;;48.23;27.03;;;;;;;;;;5036676;28;20197;-63
2022/03/26 00:02:45;;;;;;;45.63;27.67;;;;;;;;;;5036723;28;20178;-63
2022/03/26 00:05:11;;;;;;;46.00;28.30;;;;;;;;;;5037406;28;20178;-63
2022/03/26 00:07:37;;;;;;;41.63;27.47;;;;;;;;;;5055312;28;20602;-63
2022/03/26 00:10:07;;;;;;;41.07;27.07;;;;;;;;;;5054259;28;20194;-63
2022/03/26 00:12:33;;;;;;;46.23;27.00;;;;;;;;;;5054462;28;20178;-62
2022/03/26 00:14:59;;;;;;;47.27;29.27;;;;;;;;;;5054439;28;20673;-64
2022/03/26 00:17:25;;;;;;;44.43;27.23;;;;;;;;;;5054476;28;20179;-64
2022/03/26 00:19:51;;;;;;;45.03;27.20;;;;;;;;;;5036127;28;20221;-64
2022/03/26 00:22:17;;;;;;;46.60;28.73;;;;;;;;;;5054089;28;20174;-64
2022/03/26 00:24:44;;;;;;;47.53;28.80;;;;;;;;;;5054026;28;20220;-64
2022/03/26 00:27:11;;;;;;;44.03;27.67;;;;;;;;;;5054065;28;20219;-64
2022/03/26 00:29:37;;;;;;;44.37;26.90;;;;;;;;;;5053818;28;20221;-64
2022/03/26 00:32:04;;;;;;;44.33;26.27;;;;;;;;;;5054068;28;20179;-63
2022/03/26 00:34:30;;;;;;;44.53;25.93;;;;;;;;;;5036090;28;20273;-65
2022/03/26 00:36:56;;;;;;;42.40;26.00;;;;;;;;;;5054467;28;20269;-66
2022/03/26 00:39:22;;;;;;;46.70;25.57;;;;;;;;;;5035627;28;20331;-64
2022/03/26 00:41:48;;;;;;;39.67;25.33;;;;;;;;;;5053721;28;20197;-64
2022/03/26 00:44:16;;;;;;;38.97;24.97;;;;;;;;;;5054263;28;20732;-65
2022/03/26 00:46:42;;;;;;;41.23;27.03;;;;;;;;;;5053864;28;20545;-65
2022/03/26 00:49:08;;;;;;;43.47;26.33;;;;;;;;;;5053759;28;20210;-65
2022/03/26 00:51:35;;;;;;;41.57;25.40;;;;;;;;;;5053557;28;20182;-65
2022/03/26 00:54:02;;;;;;;44.33;25.40;;;;;;;;;;5053528;28;20174;-65
2022/03/26 00:56:27;;;;;;;42.23;26.20;;;;;;;;;;5053656;28;20578;-65
2022/03/26 00:58:53;;;;;;;40.67;26.33;;;;;;;;;;5053292;28;20249;-65
2022/03/26 01:01:19;;;;;;;46.50;25.63;;;;;;;;;;5035585;28;20186;-64
2022/03/26 01:03:45;;;;;;;48.07;28.53;;;;;;;;;;5053548;28;20643;-65
2022/03/26 01:06:11;;;;;;;50.77;29.43;;;;;;;;;;5053294;28;20197;-65
2022/03/26 01:08:37;;;;;;;46.60;28.67;;;;;;;;;;5053535;28;20689;-64
2022/03/26 01:11:04;;;;;;;54.37;31.07;;;;;;;;;;5053250;28;20174;-65
2022/03/26 01:13:31;;;;;;;49.13;29.00;;;;;;;;;;5053516;28;20225;-64
2022/03/26 01:15:58;;;;;;;43.00;26.80;;;;;;;;;;5053170;28;20312;-65
2022/03/26 01:18:24;;;;;;;47.33;28.03;;;;;;;;;;5079816;22;20236;-65
2022/03/26 01:20:49;;;;;;;43.90;27.70;;;;;;;;;;5052457;28;20174;-65
2022/03/26 01:23:19;;;;;;;41.30;26.00;;;;;;;;;;5053310;28;20638;-65
2022/03/26 01:25:45;;;;;;;50.57;28.57;;;;;;;;;;5035314;28;20183;-65
2022/03/26 01:28:11;;;;;;;43.37;28.03;;;;;;;;;;5035237;28;20648;-65
2022/03/26 01:30:37;;;;;;;53.83;28.33;;;;;;;;;;5053267;28;20592;-65
2022/03/26 01:33:03;;;;;;;47.87;27.20;;;;;;;;;;5035128;28;20178;-65
2022/03/26 01:35:29;;;;;;;42.37;26.73;;;;;;;;;;5053612;28;20179;-65
2022/03/26 01:37:55;;;;;;;44.87;27.40;;;;;;;;;;5052851;28;20243;-65
2022/03/26 01:40:21;;;;;;;46.40;27.37;;;;;;;;;;5035165;28;20175;-65
2022/03/26 01:42:47;;;;;;;43.30;28.23;;;;;;;;;;5052977;28;20170;-65
2022/03/26 01:45:13;;;;;;;43.87;26.40;;;;;;;;;;5035192;28;20638;-65
2022/03/26 01:47:40;;;;;;;45.63;27.10;;;;;;;;;;5053080;28;20646;-65
2022/03/26 01:50:06;;;;;;;40.23;25.87;;;;;;;;;;5053377;28;20239;-65
2022/03/26 01:52:32;;;;;;;42.13;27.20;;;;;;;;;;5053160;28;20185;-65
2022/03/26 01:54:59;;;;;;;40.33;26.43;;;;;;;;;;5053360;28;20175;-65
2022/03/26 01:57:25;;;;;;;43.20;27.43;;;;;;;;;;5035168;28;20202;-65
2022/03/26 01:59:52;;;;;;;38.60;25.57;;;;;;;;;;5052724;28;20206;-65
2022/03/26 02:02:18;;;;;;;36.03;25.87;;;;;;;;;;5053060;28;20257;-65
2022/03/26 02:04:44;;;;;;;44.87;27.53;;;;;;;;;;5035021;28;20674;-65
2022/03/26 02:07:10;;;;;;;43.80;26.33;;;;;;;;;;5035109;28;20674;-65
2022/03/26 02:09:36;;;;;;;41.63;26.30;;;;;;;;;;5052980;28;20175;-65
2022/03/26 02:12:21;;;;;;;42.90;26.87;;;;;;;;;;5052780;28;20182;-65
2022/03/26 02:14:47;;;;;;;45.30;28.37;;;;;;;;;;5053058;28;20240;-65
2022/03/26 02:17:13;;;;;;;43.30;28.10;;;;;;;;;;5052394;28;20647;-66
2022/03/26 02:19:39;;;;;;;42.30;27.07;;;;;;;;;;5052603;28;20194;-65
2022/03/26 02:22:05;;;;;;;41.73;27.30;;;;;;;;;;5034713;28;20673;-65
2022/03/26 02:24:31;;;;;;;47.63;27.03;;;;;;;;;;5052800;28;20190;-65
2022/03/26 02:26:57;;;;;;;41.27;26.83;;;;;;;;;;5034573;28;20178;-65
2022/03/26 02:29:25;;;;;;;44.07;27.60;;;;;;;;;;5034682;28;20560;-65
2022/03/26 02:31:51;;;;;;;40.70;25.13;;;;;;;;;;5037221;28;20658;-65
2022/03/26 02:34:17;;;;;;;41.63;25.93;;;;;;;;;;5038425;28;20183;-65
2022/03/26 02:36:43;;;;;;;42.37;27.37;;;;;;;;;;5038475;28;20186;-65
2022/03/26 02:39:09;;;;;;;42.90;25.60;;;;;;;;;;5039146;28;20711;-65
2022/03/26 02:41:35;;;;;;;43.43;26.40;;;;;;;;;;5059050;28;20649;-65
2022/03/26 02:44:01;;;;;;;42.30;25.67;;;;;;;;;;5059037;28;20700;-65
2022/03/26 02:46:27;;;;;;;40.40;25.27;;;;;;;;;;5059598;28;20181;-65
2022/03/26 02:48:53;;;;;;;41.43;25.97;;;;;;;;;;5057738;28;20202;-65
2022/03/26 02:51:19;;;;;;;43.80;26.57;;;;;;;;;;5057145;28;20227;-65
2022/03/26 02:53:45;;;;;;;39.07;25.97;;;;;;;;;;5056465;28;20661;-65
2022/03/26 02:56:11;;;;;;;45.10;26.67;;;;;;;;;;5038028;28;20174;-65
2022/03/26 02:58:37;;;;;;;44.37;25.87;;;;;;;;;;5037849;28;20301;-65
2022/03/26 03:01:03;;;;;;;40.90;27.10;;;;;;;;;;5055865;28;20175;-65
2022/03/26 03:03:29;;;;;;;42.20;26.43;;;;;;;;;;5055890;28;20212;-65
2022/03/26 03:05:55;;;;;;;42.87;27.67;;;;;;;;;;5037748;28;20657;-65
2022/03/26 03:08:22;;;;;;;38.07;26.60;;;;;;;;;;5037626;28;20710;-65
2022/03/26 03:10:47;;;;;;;46.50;27.67;;;;;;;;;;5037654;28;20182;-65
2022/03/26 03:13:13;;;;;;;43.00;27.23;;;;;;;;;;5055397;28;20232;-65
2022/03/26 03:15:39;;;;;;;49.57;27.70;;;;;;;;;;5055377;28;20179;-65
2022/03/26 03:18:05;;;;;;;46.63;27.90;;;;;;;;;;5055389;28;20779;-65
2022/03/26 03:20:31;;;;;;;42.40;26.50;;;;;;;;;;5037442;28;20186;-65
2022/03/26 03:22:59;;;;;;;48.77;26.57;;;;;;;;;;5055369;28;20232;-65
2022/03/26 03:25:26;;;;;;;46.23;27.43;;;;;;;;;;5055389;28;20170;-65
2022/03/26 03:27:52;;;;;;;40.90;27.47;;;;;;;;;;5055185;28;20191;-65
2022/03/26 03:30:18;;;;;;;47.47;27.47;;;;;;;;;;5055160;28;20178;-65
2022/03/26 03:32:45;;;;;;;45.37;26.30;;;;;;;;;;5037099;28;20178;-65
2022/03/26 03:35:14;;;;;;;38.73;26.10;;;;;;;;;;5055061;28;20190;-65
2022/03/26 03:37:40;;;;;;;41.80;27.20;;;;;;;;;;5037046;28;20213;-65
2022/03/26 03:40:07;;;;;;;42.20;26.17;;;;;;;;;;5054796;28;20194;-65
2022/03/26 03:42:33;;;;;;;42.97;26.80;;;;;;;;;;5054009;28;20181;-65
2022/03/26 03:44:59;;;;;;;47.13;26.33;;;;;;;;;;5055441;28;20236;-65
2022/03/26 03:47:25;;;;;;;45.40;27.20;;;;;;;;;;5054790;28;20198;-65
2022/03/26 03:49:51;;;;;;;40.67;26.43;;;;;;;;;;5054797;28;20235;-65
2022/03/26 03:52:17;;;;;;;42.17;26.53;;;;;;;;;;5054740;28;20255;-65
2022/03/26 03:54:43;;;;;;;41.10;26.97;;;;;;;;;;5054925;28;20650;-65
2022/03/26 03:57:09;;;;;;;45.20;27.30;;;;;;;;;;5055151;28;20174;-65
2022/03/26 03:59:40;;;;;;;45.87;27.00;;;;;;;;;;5038615;28;20206;-65
2022/03/26 04:02:08;;;;;;;44.13;27.40;;;;;;;;;;5038463;28;20178;-65
2022/03/26 04:04:33;;;;;;;42.93;26.33;;;;;;;;;;5057595;28;20170;-65
2022/03/26 04:06:59;;;;;;;45.37;27.27;;;;;;;;;;5057691;28;20232;-65
2022/03/26 04:09:25;;;;;;;40.47;26.07;;;;;;;;;;5037011;28;20247;-65
2022/03/26 04:11:51;;;;;;;48.10;27.43;;;;;;;;;;5054788;28;20206;-65
2022/03/26 04:14:17;;;;;;;42.07;26.63;;;;;;;;;;5054644;28;20646;-65
2022/03/26 04:16:43;;;;;;;47.57;27.63;;;;;;;;;;5054435;28;20269;-65
2022/03/26 04:19:10;;;;;;;42.40;26.87;;;;;;;;;;5053983;28;20297;-65
2022/03/26 04:21:35;;;;;;;46.20;29.70;;;;;;;;;;5036245;28;20181;-65
2022/03/26 04:24:02;;;;;;;46.07;26.73;;;;;;;;;;5036319;28;20179;-65
2022/03/26 04:26:28;;;;;;;42.63;27.00;;;;;;;;;;5054208;28;20170;-65
2022/03/26 04:28:54;;;;;;;44.90;27.23;;;;;;;;;;5036105;28;20638;-65
2022/03/26 04:31:20;;;;;;;47.10;26.47;;;;;;;;;;5054442;28;20179;-65
2022/03/26 04:33:46;;;;;;;48.57;27.97;;;;;;;;;;5054069;28;20642;-64
2022/03/26 04:36:12;;;;;;;47.63;28.37;;;;;;;;;;5036137;28;20563;-65
2022/03/26 04:38:38;;;;;;;46.60;27.30;;;;;;;;;;5036368;28;20309;-65
2022/03/26 04:41:04;;;;;;;43.80;28.57;;;;;;;;;;5053889;28;20178;-65
2022/03/26 04:43:30;;;;;;;41.57;27.00;;;;;;;;;;5035938;28;20609;-65
2022/03/26 04:45:56;;;;;;;47.93;27.37;;;;;;;;;;5053933;28;20232;-65
2022/03/26 04:48:22;;;;;;;43.83;28.03;;;;;;;;;;5035769;28;20248;-65
2022/03/26 04:50:48;;;;;;;39.03;26.47;;;;;;;;;;5035776;28;20676;-65
2022/03/26 04:53:14;;;;;;;47.90;27.97;;;;;;;;;;5053682;28;20643;-65
2022/03/26 04:55:40;;;;;;;46.97;27.13;;;;;;;;;;5053991;28;20292;-65
2022/03/26 04:58:06;;;;;;;40.70;26.27;;;;;;;;;;5053203;28;20209;-65
2022/03/26 05:00:32;;;;;;;38.43;26.13;;;;;;;;;;5053421;28;20227;-65
2022/03/26 05:02:58;;;;;;;47.53;28.63;;;;;;;;;;5053372;28;20179;-65
2022/03/26 05:05:24;;;;;;;44.40;27.03;;;;;;;;;;5035552;28;20593;-65
2022/03/26 05:07:52;;;;;;;42.67;27.53;;;;;;;;;;5053297;28;20221;-65
2022/03/26 05:10:19;;;;;;;49.47;30.20;;;;;;;;;;5053789;28;20174;-65
2022/03/26 05:12:47;;;;;;;48.13;29.53;;;;;;;;;;5053348;28;20206;-65
2022/03/26 05:15:13;;;;;;;44.13;29.30;;;;;;;;;;5035451;28;20210;-65
2022/03/26 05:17:39;;;;;;;42.57;29.40;;;;;;;;;;5053017;28;20214;-65
2022/03/26 05:20:06;;;;;;;48.63;28.57;;;;;;;;;;5053102;28;20734;-65
2022/03/26 05:22:33;;;;;;;51.30;29.77;;;;;;;;;;5035373;28;20206;-65
2022/03/26 05:24:59;;;;;;;49.83;29.67;;;;;;;;;;5035266;28;20561;-65
2022/03/26 05:27:25;;;;;;;41.90;28.40;;;;;;;;;;5053063;28;20644;-65
2022/03/26 05:29:51;;;;;;;45.27;28.37;;;;;;;;;;5053683;28;20236;-65
2022/03/26 05:32:17;;;;;;;42.10;26.90;;;;;;;;;;5035291;28;20594;-65
2022/03/26 05:34:44;;;;;;;44.43;26.90;;;;;;;;;;5035158;28;20688;-65
2022/03/26 05:37:10;;;;;;;42.23;27.00;;;;;;;;;;5053070;28;20646;-65
2022/03/26 05:39:36;;;;;;;39.43;25.00;;;;;;;;;;5053134;28;20684;-65
2022/03/26 05:42:02;;;;;;;40.17;26.83;;;;;;;;;;5053278;28;20174;-65
2022/03/26 05:44:28;;;;;;;44.17;26.60;;;;;;;;;;5052942;28;20662;-65
2022/03/26 05:46:54;;;;;;;48.13;26.90;;;;;;;;;;5052991;28;20229;-65
2022/03/26 05:49:21;;;;;;;42.43;25.10;;;;;;;;;;5052823;28;20213;-65
2022/03/26 05:51:47;;;;;;;36.23;24.20;;;;;;;;;;5052921;28;20182;-65
2022/03/26 05:54:13;;;;;;;41.27;25.63;;;;;;;;;;5035870;28;20186;-65
2022/03/26 05:56:39;;;;;;;43.13;25.57;;;;;;;;;;5035025;28;20240;-65
2022/03/26 05:59:06;;;;;;;42.97;25.43;;;;;;;;;;5053046;28;20256;-65
2022/03/26 06:01:33;;;;;;;40.57;24.57;;;;;;;;;;5052842;28;20587;-65
2022/03/26 06:03:59;;;;;;;42.40;24.60;;;;;;;;;;5034950;28;20228;-65
2022/03/26 06:06:25;;;;;;;40.37;24.93;;;;;;;;;;5054816;28;20179;-65
2022/03/26 06:08:51;;;;;;;37.50;24.60;;;;;;;;;;5056598;28;20205;-65
2022/03/26 06:11:17;;;;;;;39.87;24.40;;;;;;;;;;5038842;28;20332;-65
2022/03/26 06:13:43;;;;;;;37.63;24.20;;;;;;;;;;5056538;28;20175;-65
2022/03/26 06:16:10;;;;;;;41.87;24.57;;;;;;;;;;5057012;28;20181;-65
2022/03/26 06:18:36;;;;;;;42.53;22.40;;;;;;;;;;5056311;28;20268;-65
2022/03/26 06:21:05;;;;;;;38.83;23.87;;;;;;;;;;5056400;28;20175;-65
2022/03/26 06:23:31;;;;;;;42.53;25.00;;;;;;;;;;5038751;28;20273;-65
2022/03/26 06:25:57;;;;;;;38.77;24.57;;;;;;;;;;5038477;28;20183;-65
2022/03/26 06:28:23;;;;;;;40.97;24.93;;;;;;;;;;5056361;28;20201;-65
2022/03/26 06:30:49;;;;;;;38.43;23.70;;;;;;;;;;5056705;28;20213;-65
2022/03/26 06:33:16;;;;;;;40.80;23.93;;;;;;;;;;5056341;28;20178;-65
2022/03/26 06:35:43;;;;;;;36.23;24.13;;;;;;;;;;5056233;28;20171;-65
2022/03/26 06:38:10;;;;;;;40.27;24.10;;;;;;;;;;5056142;28;20674;-65
2022/03/26 06:40:37;;;;;;;36.00;24.43;;;;;;;;;;5038101;28;20671;-65
2022/03/26 06:43:03;;;;;;;47.67;26.47;;;;;;;;;;5056386;28;20174;-65
2022/03/26 06:45:29;;;;;;;42.60;25.40;;;;;;;;;;5056032;28;20175;-66
2022/03/26 06:47:55;;;;;;;44.00;26.37;;;;;;;;;;5056302;28;20199;-65
2022/03/26 06:50:21;;;;;;;39.73;25.17;;;;;;;;;;5055904;28;20175;-65
2022/03/26 06:52:47;;;;;;;42.53;25.20;;;;;;;;;;5038081;28;20193;-65
2022/03/26 06:55:13;;;;;;;42.60;26.07;;;;;;;;;;5055871;28;20529;-65
2022/03/26 06:57:41;;;;;;;40.73;24.87;;;;;;;;;;5055943;28;20198;-65
2022/03/26 07:00:09;;;;;;;46.00;24.87;;;;;;;;;;5056339;28;20209;-65
2022/03/26 07:02:35;;;;;;;43.07;26.03;;;;;;;;;;5037780;28;20186;-65
2022/03/26 07:05:01;;;;;;;46.90;26.40;;;;;;;;;;5055676;28;20179;-66
2022/03/26 07:07:27;;;;;;;45.13;26.73;;;;;;;;;;5037761;28;20198;-65
2022/03/26 07:09:53;;;;;;;46.23;25.13;;;;;;;;;;5055891;28;20710;-65
2022/03/26 07:12:19;;;;;;;44.60;25.40;;;;;;;;;;5055581;28;20174;-65
2022/03/26 07:14:45;;;;;;;39.10;24.17;;;;;;;;;;5037729;28;20277;-65
2022/03/26 07:17:11;;;;;;;42.17;24.93;;;;;;;;;;5054205;28;20225;-65
2022/03/26 07:19:37;;;;;;;44.30;25.60;;;;;;;;;;5037541;28;20774;-65
2022/03/26 07:22:04;;;;;;;42.70;24.53;;;;;;;;;;5055670;28;20194;-65
2022/03/26 07:24:29;;;;;;;40.23;23.47;;;;;;;;;;5055449;28;20228;-65
2022/03/26 07:26:56;;;;;;;41.23;25.10;;;;;;;;;;5055408;28;20253;-65
2022/03/26 07:29:22;;;;;;;36.13;24.47;;;;;;;;;;5037150;28;20206;-65
2022/03/26 07:31:48;;;;;;;41.40;25.57;;;;;;;;;;5037259;28;20317;-65
2022/03/26 07:34:15;;;;;;;38.87;26.07;;;;;;;;;;5037469;28;20202;-65
2022/03/26 07:36:41;;;;;;;40.90;25.03;;;;;;;;;;5037589;28;20531;-65
2022/03/26 07:39:07;;;;;;;41.53;25.50;;;;;;;;;;5037103;28;20296;-65
2022/03/26 07:41:33;;;;;;;40.90;26.17;;;;;;;;;;5055227;28;20206;-66
2022/03/26 07:43:59;;;;;;;45.53;26.40;;;;;;;;;;5037179;28;20179;-65
2022/03/26 07:46:25;;;;;;;46.40;25.83;;;;;;;;;;5047466;22;20309;-63
2022/03/26 07:48:51;;;;;;;40.17;27.00;;;;;;;;;;5036471;28;20194;-63
2022/03/26 07:51:17;;;;;;;44.50;24.77;;;;;;;;;;5035580;28;20182;-62
2022/03/26 07:53:43;;;;;;;45.23;26.67;;;;;;;;;;5036055;28;20545;-62
2022/03/26 07:56:09;;;;;;;43.97;26.93;;;;;;;;;;5035308;28;20551;-62
2022/03/26 07:58:35;;;;;;;43.30;27.00;;;;;;;;;;5035650;28;20194;-64
2022/03/26 08:01:01;;;;;;;43.87;27.20;;;;;;;;;;5017504;28;20179;-64
2022/03/26 08:03:27;;;;;;;40.87;26.80;;;;;;;;;;5017427;28;20214;-62
2022/03/26 08:05:53;;;;;;;48.13;27.00;;;;;;;;;;5017614;28;20647;-62
2022/03/26 08:08:19;;;;;;;39.87;26.03;;;;;;;;;;5017842;28;20695;-62
2022/03/26 08:10:45;;;;;;;45.03;26.57;;;;;;;;;;5034972;28;20659;-63
2022/03/26 08:13:11;;;;;;;46.57;28.07;;;;;;;;;;5035173;28;20253;-63
2022/03/26 08:15:37;;;;;;;45.10;27.43;;;;;;;;;;5017129;28;20186;-62
2022/03/26 08:18:04;;;;;;;50.03;27.73;;;;;;;;;;5035106;28;20175;-63
2022/03/26 08:20:30;;;;;;;42.80;27.67;;;;;;;;;;5017144;28;20207;-65
2022/03/26 08:22:57;;;;;;;44.80;26.33;;;;;;;;;;5034946;28;20598;-64
2022/03/26 08:28:09;;;;;;;45.60;27.90;;;;;;;;;;5035021;28;20257;-64
2022/03/26 08:30:35;;;;;;;43.07;26.47;;;;;;;;;;5017068;28;20183;-64
2022/03/26 08:33:01;;;;;;;41.77;27.20;;;;;;;;;;5035378;28;20185;-64
2022/03/26 08:35:28;;;;;;;42.00;26.27;;;;;;;;;;5017087;28;20237;-65
2022/03/26 08:37:54;;;;;;;44.23;26.33;;;;;;;;;;5034708;28;20272;-64
2022/03/26 08:40:20;;;;;;;46.80;26.97;;;;;;;;;;5016722;28;20206;-64
2022/03/26 08:42:46;;;;;;;40.03;25.73;;;;;;;;;;5034567;28;20204;-63
2022/03/26 08:45:12;;;;;;;41.17;26.73;;;;;;;;;;5034910;28;20642;-64
2022/03/26 08:47:38;;;;;;;40.27;26.13;;;;;;;;;;5016793;28;20207;-63
2022/03/26 08:50:04;;;;;;;40.17;26.50;;;;;;;;;;5017827;28;20237;-63
2022/03/26 08:52:30;;;;;;;40.03;25.50;;;;;;;;;;5041791;28;20554;-64
2022/03/26 08:54:56;;;;;;;38.43;25.67;;;;;;;;;;5043474;28;20183;-63
2022/03/26 08:57:22;;;;;;;37.07;25.67;;;;;;;;;;5043625;28;20199;-63
2022/03/26 08:59:48;;;;;;;44.17;26.43;;;;;;;;;;5042703;28;20207;-63
2022/03/26 09:02:14;;;;;;;39.53;25.33;;;;;;;;;;5035996;28;20262;-63
2022/03/26 09:04:40;;;;;;;41.57;27.23;;;;;;;;;;5034189;28;20229;-63
2022/03/26 09:07:06;;;;;;;38.97;25.33;;;;;;;;;;5034242;28;20333;-64
2022/03/26 09:09:32;;;;;;;36.83;25.10;;;;;;;;;;5034097;28;20179;-63
2022/03/26 09:11:58;;;;;;;39.43;25.57;;;;;;;;;;5033888;28;20237;-63
2022/03/26 09:14:24;;;;;;;38.03;24.73;;;;;;;;;;5034103;28;20194;-63
2022/03/26 09:16:51;;;;;;;33.77;24.60;;;;;;;;;;5016006;28;20238;-63
2022/03/26 09:19:17;;;;;;;37.23;24.07;;;;;;;;;;5033765;28;20191;-63
2022/03/26 09:21:45;;;;;;;36.47;23.07;;;;;;;;;;5016334;28;20193;-63
2022/03/26 09:24:11;;;;;;;35.20;23.97;;;;;;;;;;5033966;28;20167;-62
2022/03/26 09:26:37;;;;;;;37.90;23.87;;;;;;;;;;5033572;28;20274;-63
2022/03/26 09:29:03;;;;;;;34.53;22.00;;;;;;;;;;5016919;28;20210;-63
2022/03/26 09:31:29;;;;;;;37.57;24.30;;;;;;;;;;5033886;28;20691;-63
2022/03/26 09:33:55;;;;;;;32.00;22.47;;;;;;;;;;5033642;28;20175;-63
2022/03/26 09:36:21;;;;;;;32.20;21.93;;;;;;;;;;5033537;28;20225;-63
2022/03/26 09:38:47;;;;;;;33.60;22.63;;;;;;;;;;5033917;28;20234;-63
2022/03/26 09:41:13;;;;;;;35.43;22.60;;;;;;;;;;5035738;28;20649;-63
2022/03/26 09:43:39;;;;;;;35.47;22.23;;;;;;;;;;5020305;28;20190;-64
2022/03/26 09:46:06;;;;;;;33.13;22.17;;;;;;;;;;5037855;28;20285;-63
2022/03/26 09:48:32;;;;;;;32.80;22.30;;;;;;;;;;5038253;28;20163;-63
2022/03/26 09:50:58;;;;;;;34.90;21.73;;;;;;;;;;5038602;28;20651;-63
2022/03/26 09:53:25;;;;;;;30.63;21.53;;;;;;;;;;5038409;28;20525;-63
2022/03/26 09:55:52;;;;;;;33.07;21.23;;;;;;;;;;5039140;28;20257;-63
2022/03/26 09:58:18;;;;;;;31.73;20.50;;;;;;;;;;5038325;28;20670;-63
2022/03/26 10:00:44;;;;;;;46.37;22.00;;;;;;;;;;5038218;28;20185;-63
2022/03/26 10:03:10;;;;;;;37.47;22.33;;;;;;;;;;5038452;28;20640;-63
2022/03/26 10:05:36;;;;;;;30.20;20.50;;;;;;;;;;5020762;28;20183;-63
2022/03/26 10:08:15;;;;;;;31.27;21.13;;;;;;;;;;5038134;28;20638;-63
2022/03/26 10:10:43;;;;;;;33.90;19.77;;;;;;;;;;5019628;28;20179;-63
2022/03/26 10:13:09;;;;;;;30.70;19.70;;;;;;;;;;5037863;28;20233;-62
2022/03/26 10:15:35;;;;;;;27.20;18.77;;;;;;;;;;5037859;28;20167;-62
2022/03/26 10:18:12;;;;;;;30.47;18.23;;;;;;;;;;5019645;28;20555;-63
2022/03/26 10:20:39;;;;;;;30.70;18.60;;;;;;;;;;5037009;28;20762;-63
2022/03/26 10:23:05;;;;;;;29.60;17.93;;;;;;;;;;5037411;28;20673;-63
2022/03/26 10:25:31;;;;;;;25.87;17.17;;;;;;;;;;5037106;28;20175;-63
2022/03/26 10:27:57;;;;;;;26.60;17.87;;;;;;;;;;5036953;28;20730;-63
2022/03/26 10:33:22;;;;;;;21.87;14.20;;;;;;;;;;5037355;28;20228;-63
2022/03/26 10:35:59;;;;;;;21.37;14.57;;;;;;;;;;5036868;28;20174;-64
2022/03/26 10:38:37;;;;;;;20.80;14.50;;;;;;;;;;5036727;28;20175;-63
2022/03/26 10:41:06;;;;;;;15.87;10.90;;;;;;;;;;5036815;28;20246;-63
2022/03/26 10:43:32;;;;;;;20.93;12.80;;;;;;;;;;5036901;28;20179;-63
2022/03/26 10:45:59;;;;;;;17.57;11.53;;;;;;;;;;5036474;28;20207;-63
2022/03/26 10:48:29;;;;;;;17.83;12.23;;;;;;;;;;5037795;28;20156;-63
2022/03/26 10:50:59;;;;;;;19.03;9.57;;;;;;;;;;5019420;28;20190;-63
2022/03/26 10:53:35;;;;;;;15.27;10.10;;;;;;;;;;5036351;28;20167;-63
2022/03/26 10:56:05;;;;;;;16.63;9.60;;;;;;;;;;5036604;28;20198;-62
2022/03/26 10:58:31;;;;;;;14.47;9.07;;;;;;;;;;5036227;28;20175;-63
2022/03/26 11:00:58;;;;;;;13.70;9.87;;;;;;;;;;5036892;28;20207;-63
2022/03/26 11:03:24;;;;;;;13.77;9.43;;;;;;;;;;5018630;28;20659;-63
2022/03/26 11:05:53;;;;;;;12.57;9.43;;;;;;;;;;5036688;28;20233;-63
2022/03/26 11:08:20;;;;;;;11.93;8.73;;;;;;;;;;5036462;28;20184;-63
2022/03/26 11:10:46;;;;;;;12.93;8.83;;;;;;;;;;5018590;28;20191;-62
2022/03/26 11:13:12;;;;;;;12.23;9.00;;;;;;;;;;5036269;28;20202;-62
2022/03/26 11:15:50;;;;;;;12.90;8.77;;;;;;;;;;5036249;28;20180;-62
2022/03/26 11:18:25;;;;;;;17.43;9.60;;;;;;;;;;5036062;28;20233;-62
2022/03/26 11:20:57;;;;;;;13.73;9.57;;;;;;;;;;5018329;28;20600;-62
2022/03/26 11:23:39;;;;;;;13.67;9.70;;;;;;;;;;5035961;28;20229;-62
2022/03/26 11:26:20;;;;;;;13.07;9.13;;;;;;;;;;5018151;28;20207;-62
2022/03/26 11:29:05;;;;;;;13.83;10.00;;;;;;;;;;5018198;28;20178;-63
2022/03/26 11:31:46;;;;;;;15.73;10.57;;;;;;;;;;5036190;28;20193;-62
2022/03/26 11:34:12;;;;;;;12.93;9.23;;;;;;;;;;5036041;28;20229;-62
2022/03/26 11:36:38;;;;;;;14.87;10.03;;;;;;;;;;5035766;28;20195;-62
2022/03/26 11:39:17;;;;;;;13.50;9.17;;;;;;;;;;5035537;28;20290;-62
2022/03/26 11:41:47;;;;;;;13.13;8.93;;;;;;;;;;5035803;28;20225;-62
2022/03/26 11:44:15;;;;;;;15.73;10.07;;;;;;;;;;5017748;28;20270;-62
2022/03/26 11:52:20;;;;;;;12.27;7.80;;;;;;;;;;5035678;28;20206;-62
2022/03/26 11:54:49;;;;;;;10.23;8.13;;;;;;;;;;5035447;28;20555;-63
2022/03/26 11:57:25;;;;;;;14.80;7.70;;;;;;;;;;5035303;28;20655;-63
2022/03/26 11:59:52;;;;;;;13.20;9.13;;;;;;;;;;5035332;28;20680;-63
2022/03/26 12:02:19;;;;;;;15.13;8.13;;;;;;;;;;5035549;28;20176;-65
2022/03/26 12:08:11;;;;;;;11.17;8.50;;;;;;;;;;5035900;28;20563;-63
2022/03/26 12:10:37;;;;;;;16.43;9.87;;;;;;;;;;5035161;28;20201;-63
2022/03/26 12:13:03;;;;;;;9.73;6.97;;;;;;;;;;5017190;28;20606;-63
2022/03/26 12:15:31;;;;;;;14.43;8.10;;;;;;;;;;5035462;28;20207;-62
2022/03/26 12:18:10;;;;;;;10.73;7.87;;;;;;;;;;5035570;28;20538;-63
2022/03/26 12:20:43;;;;;;;10.23;7.37;;;;;;;;;;5035085;28;20285;-63
2022/03/26 12:23:13;;;;;;;12.17;7.80;;;;;;;;;;5036291;28;20205;-63
2022/03/26 12:25:45;;;;;;;11.63;8.53;;;;;;;;;;5017199;28;20529;-63
2022/03/26 12:28:11;;;;;;;13.77;8.87;;;;;;;;;;5035419;28;20604;-63
2022/03/26 12:30:38;;;;;;;10.60;7.40;;;;;;;;;;5034867;28;20182;-63
2022/03/26 12:33:07;;;;;;;11.87;7.83;;;;;;;;;;5034721;28;20555;-63
2022/03/26 12:35:33;;;;;;;13.67;8.10;;;;;;;;;;5034823;28;20186;-63
2022/03/26 12:38:02;;;;;;;10.60;7.60;;;;;;;;;;5016760;28;20199;-63
2022/03/26 12:40:29;;;;;;;11.20;7.83;;;;;;;;;;5034474;28;20203;-63
2022/03/26 12:42:55;;;;;;;8.77;7.17;;;;;;;;;;5034445;28;20179;-63
2022/03/26 12:45:21;;;;;;;11.83;7.93;;;;;;;;;;5034848;28;20171;-63
2022/03/26 12:47:48;;;;;;;14.43;8.03;;;;;;;;;;5034497;28;20210;-63
2022/03/26 12:50:18;;;;;;;10.93;7.70;;;;;;;;;;5034734;28;20548;-64
2022/03/26 12:52:44;;;;;;;14.27;8.37;;;;;;;;;;5016695;28;20542;-63
2022/03/26 12:55:11;;;;;;;13.63;8.40;;;;;;;;;;5034790;28;20205;-63
2022/03/26 13:00:26;;;;;;;12.70;9.30;;;;;;;;;;5035089;28;20722;-63
2022/03/26 13:03:09;;;;;;;12.50;8.63;;;;;;;;;;5034967;28;20274;-64
2022/03/26 13:05:38;;;;;;;11.67;8.03;;;;;;;;;;5035086;28;20187;-63
2022/03/26 13:08:10;;;;;;;10.87;8.23;;;;;;;;;;5034948;28;20175;-63
2022/03/26 13:10:37;;;;;;;11.50;7.17;;;;;;;;;;5035321;28;20266;-63
2022/03/26 13:13:05;;;;;;;11.10;7.83;;;;;;;;;;5035150;28;20179;-64
2022/03/26 13:15:31;;;;;;;9.77;6.83;;;;;;;;;;5016972;28;20189;-64
2022/03/26 13:18:01;;;;;;;10.10;6.37;;;;;;;;;;5034499;28;20686;-64
2022/03/26 13:20:32;;;;;;;8.40;5.90;;;;;;;;;;5035728;28;20199;-63
2022/03/26 13:23:09;;;;;;;10.47;6.80;;;;;;;;;;5034331;28;20175;-63
2022/03/26 13:25:35;;;;;;;8.27;6.17;;;;;;;;;;5034778;28;20167;-63
2022/03/26 13:28:18;;;;;;;9.93;6.07;;;;;;;;;;5034901;28;20171;-63
2022/03/26 13:30:45;;;;;;;8.57;5.57;;;;;;;;;;5017357;28;20189;-63
2022/03/26 13:33:17;;;;;;;9.87;5.40;;;;;;;;;;5034599;28;20210;-63
2022/03/26 13:35:50;;;;;;;8.93;5.87;;;;;;;;;;5034173;28;20651;-63
2022/03/26 13:38:16;;;;;;;7.07;5.13;;;;;;;;;;5034548;28;20709;-62
2022/03/26 13:40:42;;;;;;;10.20;6.03;;;;;;;;;;5016449;28;20250;-63
2022/03/26 13:43:10;;;;;;;6.03;4.87;;;;;;;;;;5016582;28;20274;-63
2022/03/26 13:45:36;;;;;;;8.07;4.67;;;;;;;;;;5034251;28;20185;-62
2022/03/26 13:48:02;;;;;;;7.07;5.00;;;;;;;;;;5033212;28;20270;-62
2022/03/26 13:50:28;;;;;;;8.23;5.40;;;;;;;;;;5034688;22;1046784;-64
2022/03/26 13:52:54;;;;;;;9.60;5.77;;;;;;;;;;5035131;28;20285;-64
2022/03/26 13:55:20;;;;;;;12.00;9.47;;;;;;;;;;5053441;28;20178;-64
2022/03/26 13:57:49;;;;;;;7.50;5.00;;;;;;;;;;5053017;28;20662;-64
2022/03/26 14:00:16;;;;;;;7.53;5.10;;;;;;;;;;5034976;28;20221;-64
2022/03/26 14:02:42;;;;;;;8.53;5.20;;;;;;;;;;5052963;28;20181;-64
2022/03/26 14:05:28;;;;;;;6.93;5.10;;;;;;;;;;5035063;28;20189;-64
2022/03/26 14:07:58;;;;;;;8.07;5.00;;;;;;;;;;5053408;28;20573;-64
2022/03/26 14:10:37;;;;;;;5.03;4.23;;;;;;;;;;5034936;28;20203;-64
2022/03/26 14:13:05;;;;;;;7.43;4.93;;;;;;;;;;5053563;28;20162;-64
2022/03/26 14:15:32;;;;;;;9.07;6.73;;;;;;;;;;5034959;28;20186;-63
2022/03/26 14:17:58;;;;;;;8.33;7.43;;;;;;;;;;5053069;28;20186;-66
2022/03/26 14:20:25;;;;;;;11.80;8.85;;;;;;;;;;5051384;28;20498;-65
2022/03/26 14:22:56;;;;;;;10.63;8.95;;;;;;;;;;5051657;28;20381;-65
2022/03/26 14:25:22;;;;;;;12.52;8.80;;;;;;;;;;5051693;28;20378;-64
2022/03/26 14:27:48;;;;;;;8.00;7.10;;;;;;;;;;5053958;28;20376;-65
2022/03/26 14:30:14;;;;;;;8.52;6.85;;;;;;;;;;5037217;28;20816;-63
2022/03/26 14:32:40;;;;;;;10.40;6.90;;;;;;;;;;5037344;28;20386;-63
2022/03/26 14:35:06;;;;;;;12.75;9.65;;;;;;;;;;5037486;28;20784;-63
2022/03/26 14:37:32;;;;;;;11.27;8.75;;;;;;;;;;5037239;28;20390;-63